Time;durP1;ratioP1;P1;durP2;ratioP2;P2;SDS_P1;SDS_P2;PMS_P1;PMS_P2;Temp;Humidity;BMP_temperature;BMP_pressure;BME280_temperature;BME280_humidity;BME280_pressure;Samples;Min_cycle;Max_cycle;Signal;HPM_P1;HPM_P2
2022/11/12 00:01:41;;;;;;;51.00;22.00;;;;;;;5.11;85.08;101872.13;103305;1281;22462;-60
2022/11/12 00:04:12;;;;;;;59.10;23.50;;;;;;;5.10;85.00;101871.42;103260;1303;23103;-60
2022/11/12 00:06:43;;;;;;;49.50;23.20;;;;;;;5.09;84.90;101873.02;103258;1288;22714;-62
2022/11/12 00:09:15;;;;;;;48.50;22.20;;;;;;;5.07;84.86;101873.88;103269;1283;22460;-60
2022/11/12 00:11:46;;;;;;;49.60;22.60;;;;;;;5.04;84.74;101877.14;103259;1304;22462;-58
2022/11/12 00:14:17;;;;;;;48.30;23.10;;;;;;;5.03;85.06;101876.36;103261;1299;22475;-58
2022/11/12 00:16:49;;;;;;;51.80;23.10;;;;;;;5.02;85.12;101880.80;103291;1281;22840;-62
2022/11/12 00:19:21;;;;;;;50.00;22.40;;;;;;;5.00;84.94;101880.49;103243;1281;24444;-60
2022/11/12 00:21:52;;;;;;;51.90;25.10;;;;;;;4.97;84.72;101883.27;103230;1281;22473;-60
2022/11/12 00:24:23;;;;;;;55.80;24.60;;;;;;;4.92;84.58;101885.80;103288;1281;25338;-62
2022/11/12 00:26:55;;;;;;;52.60;24.50;;;;;;;4.88;84.66;101885.04;103317;1281;25267;-60
2022/11/12 00:29:26;;;;;;;57.80;26.60;;;;;;;4.83;84.47;101885.75;103309;1290;22676;-61
2022/11/12 00:31:58;;;;;;;49.70;22.50;;;;;;;4.78;84.52;101884.74;103311;1297;25328;-61
2022/11/12 00:34:30;;;;;;;47.10;23.40;;;;;;;4.74;84.56;101892.67;103260;1289;24346;-59
2022/11/12 00:37:03;;;;;;;49.90;22.20;;;;;;;4.70;84.64;101892.76;103259;1282;25275;-61
2022/11/12 00:39:35;;;;;;;51.80;23.80;;;;;;;4.67;84.62;101893.31;103326;1277;24377;-61
2022/11/12 00:42:06;;;;;;;42.70;22.20;;;;;;;4.64;84.51;101890.65;103374;1303;22469;-61
2022/11/12 00:44:37;;;;;;;48.00;22.40;;;;;;;4.61;84.51;101891.35;103305;1291;22477;-60
2022/11/12 00:47:09;;;;;;;43.60;21.00;;;;;;;4.59;84.56;101896.09;103273;1280;22933;-60
2022/11/12 00:49:41;;;;;;;46.80;22.60;;;;;;;4.56;84.59;101895.55;103204;1303;22463;-60
2022/11/12 00:52:13;;;;;;;48.30;23.90;;;;;;;4.54;84.70;101898.87;103382;1297;22504;-60
2022/11/12 00:54:45;;;;;;;50.40;21.70;;;;;;;4.52;84.77;101897.93;103308;1281;22472;-60
2022/11/12 00:57:16;;;;;;;49.70;26.50;;;;;;;4.51;84.63;101897.38;103321;1281;26547;-60
2022/11/12 00:59:48;;;;;;;58.40;27.30;;;;;;;4.49;84.43;101896.52;103333;1303;22477;-60
2022/11/12 01:02:21;;;;;;;53.60;26.10;;;;;;;4.45;84.26;101891.15;103287;1303;22466;-60
2022/11/12 01:04:52;;;;;;;61.90;29.10;;;;;;;4.41;84.26;101888.63;103237;1303;22568;-60
2022/11/12 01:07:25;;;;;;;58.70;29.70;;;;;;;4.36;84.29;101888.55;103191;1304;25271;-60
2022/11/12 01:09:56;;;;;;;58.90;27.60;;;;;;;4.32;84.21;101889.82;103230;1303;26549;-62
2022/11/12 01:12:27;;;;;;;58.40;27.30;;;;;;;4.27;84.25;101887.63;103440;1290;24457;-60
2022/11/12 01:14:59;;;;;;;52.60;25.20;;;;;;;4.23;84.17;101883.04;103433;1303;22481;-60
2022/11/12 01:17:31;;;;;;;53.30;23.80;;;;;;;4.19;84.17;101883.98;103418;1274;22479;-63
2022/11/12 01:20:03;;;;;;;52.80;24.90;;;;;;;4.15;84.30;101882.02;103365;1282;22481;-60
2022/11/12 01:22:36;;;;;;;50.00;23.00;;;;;;;4.13;84.17;101882.34;103214;1304;24616;-59
2022/11/12 01:25:11;;;;;;;47.40;22.50;;;;;;;4.09;84.35;101881.87;103220;1291;24329;-60
2022/11/12 01:27:42;;;;;;;52.50;22.30;;;;;;;4.06;84.34;101885.81;103315;1303;22709;-60
2022/11/12 01:30:15;;;;;;;48.40;23.00;;;;;;;4.03;84.40;101881.30;103301;1272;25388;-61
2022/11/12 01:32:47;;;;;;;51.60;22.00;;;;;;;3.98;84.53;101879.80;103283;1300;24009;-61
2022/11/12 01:35:18;;;;;;;46.00;22.00;;;;;;;3.95;84.64;101880.98;103304;1279;25773;-60
2022/11/12 01:37:50;;;;;;;48.00;21.10;;;;;;;3.94;84.79;101883.99;103478;1280;24398;-62
2022/11/12 01:40:22;;;;;;;49.00;22.70;;;;;;;3.92;84.94;101879.34;103323;1281;24294;-61
2022/11/12 01:42:55;;;;;;;48.20;21.40;;;;;;;3.90;84.82;101882.02;103294;1282;22524;-60
2022/11/12 01:45:27;;;;;;;50.20;22.30;;;;;;;3.86;84.97;101881.38;103322;1304;25307;-60
2022/11/12 01:48:00;;;;;;;45.20;20.70;;;;;;;3.83;85.24;101885.16;103459;1281;24442;-60
2022/11/12 01:50:36;;;;;;;50.00;21.80;;;;;;;3.81;85.28;101881.94;103635;1303;26727;-60
2022/11/12 01:53:10;;;;;;;47.10;22.10;;;;;;;3.83;85.40;101884.36;103396;1301;22498;-60
2022/11/12 01:55:42;;;;;;;51.50;21.50;;;;;;;3.82;85.51;101882.48;103249;1304;22789;-60
2022/11/12 01:58:17;;;;;;;51.20;22.80;;;;;;;3.82;85.60;101882.80;103326;1279;25336;-58
2022/11/12 02:00:49;;;;;;;52.20;23.00;;;;;;;3.82;85.78;101881.30;103535;1300;24292;-60
2022/11/12 02:03:23;;;;;;;49.00;22.30;;;;;;;3.80;85.76;101882.08;103463;1274;25441;-60
2022/11/12 02:05:58;;;;;;;52.60;22.60;;;;;;;3.79;85.93;101878.05;103306;1303;22459;-60
2022/11/12 02:08:33;;;;;;;50.90;22.10;;;;;;;3.78;86.02;101875.06;103510;1304;25352;-61
2022/11/12 02:11:13;;;;;;;44.70;19.80;;;;;;;3.79;86.01;101879.23;103346;1282;22469;-61
2022/11/12 02:14:00;;;;;;;46.60;20.10;;;;;;;3.78;86.03;101871.52;103334;1304;22923;-62
2022/11/12 02:16:35;;;;;;;47.00;19.90;;;;;;;3.77;85.89;101869.30;103251;1280;22418;-61
2022/11/12 02:19:08;;;;;;;54.20;19.90;;;;;;;3.77;85.93;101868.81;103246;1282;22457;-59
2022/11/12 02:21:40;;;;;;;41.50;18.50;;;;;;;3.77;85.79;101865.42;103277;1294;24459;-60
2022/11/12 02:24:35;;;;;;;47.60;19.60;;;;;;;3.76;85.78;101868.66;103351;1274;25229;-59
2022/11/12 02:27:08;;;;;;;40.90;18.10;;;;;;;3.74;85.74;101865.42;103329;1304;25373;-60
2022/11/12 02:29:45;;;;;;;45.50;18.40;;;;;;;3.71;85.70;101864.17;103394;1303;25302;-61
2022/11/12 02:32:16;;;;;;;40.90;17.70;;;;;;;3.71;85.83;101865.19;103357;1278;22420;-62
2022/11/12 02:34:47;;;;;;;44.40;17.70;;;;;;;3.71;85.64;101869.14;103352;1303;25308;-60
2022/11/12 02:37:19;;;;;;;42.30;17.50;;;;;;;3.69;85.64;101873.16;103273;1281;22493;-60
2022/11/12 02:39:50;;;;;;;42.80;17.10;;;;;;;3.68;85.51;101871.81;103280;1281;22487;-62
2022/11/12 02:42:22;;;;;;;41.50;17.80;;;;;;;3.67;85.49;101869.05;103347;1305;22934;-60
2022/11/12 02:44:53;;;;;;;38.90;16.90;;;;;;;3.64;85.36;101868.89;103399;1303;22474;-59
2022/11/12 02:47:25;;;;;;;41.30;18.40;;;;;;;3.61;85.42;101867.14;103297;1281;22470;-60
2022/11/12 02:49:56;;;;;;;41.60;18.30;;;;;;;3.58;85.47;101865.96;103236;1280;25254;-61
2022/11/12 02:52:28;;;;;;;44.40;15.60;;;;;;;3.56;85.59;101861.06;103235;1300;23189;-60
2022/11/12 02:54:59;;;;;;;38.90;15.70;;;;;;;3.53;85.87;101860.59;103276;1295;24310;-61
2022/11/12 02:57:30;;;;;;;38.50;15.30;;;;;;;3.52;86.04;101861.13;103249;1281;24351;-59
2022/11/12 03:00:04;;;;;;;37.40;15.10;;;;;;;3.52;86.21;101865.00;103392;1299;24336;-60
2022/11/12 03:02:41;;;;;;;37.80;14.00;;;;;;;3.53;86.26;101864.14;103429;1304;22478;-60
2022/11/12 03:05:13;;;;;;;39.00;15.00;;;;;;;3.54;86.34;101863.98;103301;1280;22686;-60
2022/11/12 03:07:44;;;;;;;35.10;13.60;;;;;;;3.56;86.23;101865.08;103297;1306;22504;-59
2022/11/12 03:10:16;;;;;;;36.00;14.40;;;;;;;3.56;86.18;101865.00;103148;1294;22863;-59
2022/11/12 03:12:48;;;;;;;35.90;13.90;;;;;;;3.57;86.17;101866.34;103336;1281;23951;-60
2022/11/12 03:15:19;;;;;;;30.20;13.10;;;;;;;3.58;86.29;101870.70;103296;1304;26662;-62
2022/11/12 03:17:51;;;;;;;34.70;12.90;;;;;;;3.58;86.30;101864.54;103381;1304;24266;-60
2022/11/12 03:20:23;;;;;;;30.80;14.40;;;;;;;3.58;86.36;101866.27;103385;1281;22486;-60
2022/11/12 03:23:02;;;;;;;34.40;14.20;;;;;;;3.59;86.32;101866.52;103272;1280;22829;-60
2022/11/12 03:25:33;;;;;;;33.20;13.00;;;;;;;3.61;86.38;101871.25;103419;1305;22454;-60
2022/11/12 03:28:08;;;;;;;32.60;13.40;;;;;;;3.61;86.32;101868.27;103336;1279;22783;-60
2022/11/12 03:30:41;;;;;;;36.40;13.00;;;;;;;3.61;86.33;101868.65;103447;1303;22468;-60
2022/11/12 03:33:14;;;;;;;30.90;11.50;;;;;;;3.62;86.34;101872.03;103353;1303;22457;-62
2022/11/12 03:35:46;;;;;;;33.30;12.10;;;;;;;3.61;86.31;101871.95;103347;1303;22447;-60
2022/11/12 03:38:18;;;;;;;29.40;11.40;;;;;;;3.61;86.27;101873.38;103415;1302;22482;-61
2022/11/12 03:40:50;;;;;;;31.30;11.90;;;;;;;3.60;86.19;101877.64;103362;1281;22482;-60
2022/11/12 03:43:21;;;;;;;30.40;11.30;;;;;;;3.59;86.26;101876.05;103264;1304;24155;-60
2022/11/12 03:45:53;;;;;;;28.30;10.50;;;;;;;3.59;86.33;101874.71;103506;1280;22470;-61
2022/11/12 03:48:24;;;;;;;32.10;11.90;;;;;;;3.57;86.32;101877.55;103533;1303;22609;-60
2022/11/12 03:50:59;;;;;;;29.30;11.90;;;;;;;3.56;86.25;101874.40;103286;1304;24418;-60
2022/11/12 03:53:30;;;;;;;29.20;11.50;;;;;;;3.52;86.12;101870.05;103602;1281;24623;-60
2022/11/12 03:56:02;;;;;;;29.60;11.10;;;;;;;3.49;86.21;101872.18;103340;1281;23290;-60
2022/11/12 03:58:34;;;;;;;30.60;11.10;;;;;;;3.47;86.29;101875.80;103230;1280;22592;-60
2022/11/12 04:01:07;;;;;;;30.20;11.40;;;;;;;3.47;86.47;101876.51;103241;1304;25384;-60
2022/11/12 04:03:38;;;;;;;28.60;10.60;;;;;;;3.47;86.51;101873.99;103340;1282;24612;-60
2022/11/12 04:08:59;;;;;;;26.10;10.20;;;;;;;3.49;86.50;101875.09;103271;1302;24336;-60
2022/11/12 04:11:30;;;;;;;28.70;10.60;;;;;;;3.48;86.53;101875.71;103449;1304;22470;-59
2022/11/12 04:14:01;;;;;;;29.80;11.70;;;;;;;3.48;86.47;101878.23;103313;1303;24308;-59
2022/11/12 04:22:13;;;;;;;32.70;11.20;;;;;;;3.47;86.37;101876.35;103203;1306;24596;-61
2022/11/12 04:27:35;;;;;;;37.50;13.70;;;;;;;3.44;86.39;101875.48;103237;1304;24466;-62
2022/11/12 04:30:18;;;;;;;32.90;12.40;;;;;;;3.43;86.27;101874.38;103333;1280;22478;-59
2022/11/12 04:32:53;;;;;;;31.20;12.50;;;;;;;3.40;86.35;101870.49;103337;1306;24343;-59
2022/11/12 04:35:26;;;;;;;30.80;11.70;;;;;;;3.39;86.41;101872.95;103449;1295;22483;-60
2022/11/12 04:37:58;;;;;;;32.50;11.60;;;;;;;3.36;86.40;101871.98;103388;1281;24456;-59
2022/11/12 04:46:11;;;;;;;29.40;11.50;;;;;;;3.28;86.21;101866.60;102808;1283;24321;-60
2022/11/12 04:48:43;;;;;;;32.60;12.90;;;;;;;3.27;86.41;101868.58;102971;1288;24429;-61
2022/11/12 04:54:04;;;;;;;33.50;12.40;;;;;;;3.21;86.19;101874.39;102866;1306;24469;-58
2022/11/12 04:56:36;;;;;;;37.40;14.50;;;;;;;3.16;86.20;101874.69;102997;1307;22465;-60
2022/11/12 04:59:08;;;;;;;41.40;15.20;;;;;;;3.11;86.33;101874.59;102872;1284;23050;-60
2022/11/12 05:01:39;;;;;;;32.40;12.30;;;;;;;3.08;86.32;101879.86;103140;1286;22471;-62
2022/11/12 05:04:10;;;;;;;37.70;15.00;;;;;;;3.07;86.45;101876.00;102986;1285;22665;-60
2022/11/12 05:06:51;;;;;;;32.40;12.60;;;;;;;3.07;86.38;101874.96;102859;1307;22511;-62
2022/11/12 05:09:21;;;;;;;;;;;;;;;3.05;86.34;101877.71;102973;1287;25290;-60
2022/11/12 05:11:54;;;;;;;34.60;12.70;;;;;;;3.03;86.27;101880.70;103124;1307;24267;-59
2022/11/12 05:14:26;;;;;;;37.40;14.00;;;;;;;3.02;86.27;101884.09;102952;1294;22797;-60
2022/11/12 05:16:57;;;;;;;36.80;14.20;;;;;;;2.98;86.04;101884.16;102984;1288;24410;-60
2022/11/12 05:19:29;;;;;;;39.90;14.70;;;;;;;2.95;86.12;101880.27;102939;1283;24396;-60
2022/11/12 05:22:06;;;;;;;36.30;13.00;;;;;;;2.94;86.08;101884.77;102923;1284;22471;-60
2022/11/12 05:24:40;;;;;;;34.10;13.60;;;;;;;2.91;85.79;101888.14;103213;1304;22476;-60
2022/11/12 05:27:14;;;;;;;30.90;12.40;;;;;;;2.85;85.77;101886.23;103341;1297;22503;-60
2022/11/12 05:29:46;;;;;;;35.90;13.70;;;;;;;2.81;85.98;101890.62;103317;1304;22505;-59
2022/11/12 05:32:18;;;;;;;34.30;12.60;;;;;;;2.80;86.02;101891.48;103283;1282;25686;-61
2022/11/12 05:34:50;;;;;;;35.70;11.70;;;;;;;2.77;85.82;101891.93;103310;1286;22535;-61
2022/11/12 05:37:22;;;;;;;32.80;12.20;;;;;;;2.71;85.71;101892.38;103237;1302;25372;-61
2022/11/12 05:39:54;;;;;;;31.10;11.70;;;;;;;2.67;85.76;101898.42;103257;1288;22517;-60
2022/11/12 05:42:25;;;;;;;30.80;12.10;;;;;;;2.64;85.78;101898.71;103319;1304;24462;-61
2022/11/12 05:44:56;;;;;;;32.70;11.50;;;;;;;2.62;85.94;101895.55;103343;1303;25114;-60
2022/11/12 05:47:28;;;;;;;31.90;11.70;;;;;;;2.61;85.94;101902.16;103285;1306;22575;-59
2022/11/12 05:50:00;;;;;;;36.70;13.10;;;;;;;2.60;86.08;101903.19;103228;1282;23963;-59
2022/11/12 05:52:31;;;;;;;33.70;11.10;;;;;;;2.58;86.14;101904.27;103279;1305;22478;-58
2022/11/12 05:55:03;;;;;;;33.70;14.30;;;;;;;2.57;86.32;101909.46;103952;1281;22474;-61
2022/11/12 05:57:35;;;;;;;33.10;12.00;;;;;;;2.58;86.38;101913.95;103414;1304;22460;-61
2022/11/12 06:00:08;;;;;;;33.60;13.40;;;;;;;2.57;86.47;101911.81;103323;1304;24266;-60
2022/11/12 06:02:39;;;;;;;31.00;11.90;;;;;;;2.58;86.63;101913.41;103365;1304;25339;-59
2022/11/12 06:05:12;;;;;;;30.80;11.10;;;;;;;2.57;86.64;101916.78;103342;1305;25420;-59
2022/11/12 06:07:43;;;;;;;32.60;11.80;;;;;;;2.57;86.75;101915.70;103249;1303;24396;-61
2022/11/12 06:10:14;;;;;;;32.20;11.30;;;;;;;2.58;86.73;101918.77;103293;1305;22576;-61
2022/11/12 06:12:46;;;;;;;31.90;11.60;;;;;;;2.58;86.76;101920.27;103386;1287;22476;-61
2022/11/12 06:15:18;;;;;;;35.10;11.90;;;;;;;2.57;86.52;101920.89;103330;1299;22460;-62
2022/11/12 06:17:49;;;;;;;31.00;11.90;;;;;;;2.56;86.60;101924.27;103510;1303;25192;-61
2022/11/12 06:20:21;;;;;;;33.10;11.90;;;;;;;2.55;86.66;101923.07;103343;1280;22474;-61
2022/11/12 06:22:52;;;;;;;36.80;12.00;;;;;;;2.55;86.85;101930.02;103475;1280;24449;-62
2022/11/12 06:25:24;;;;;;;32.00;12.70;;;;;;;2.54;87.07;101931.41;103293;1288;22475;-61
2022/11/12 06:27:55;;;;;;;29.50;11.00;;;;;;;2.54;87.09;101935.91;103244;1282;24216;-63
2022/11/12 06:30:27;;;;;;;30.50;12.80;;;;;;;2.54;87.18;101940.16;103375;1304;25594;-61
2022/11/12 06:32:59;;;;;;;30.70;11.60;;;;;;;2.55;87.28;101935.29;103349;1294;24332;-61
2022/11/12 06:35:31;;;;;;;33.70;11.90;;;;;;;2.55;87.42;101934.58;103604;1298;24452;-62
2022/11/12 06:38:02;;;;;;;33.20;13.30;;;;;;;2.54;87.77;101934.50;103366;1304;24260;-61
2022/11/12 06:40:33;;;;;;;39.00;15.80;;;;;;;2.54;88.13;101929.52;103147;1304;22576;-60
2022/11/12 06:43:05;;;;;;;42.40;18.00;;;;;;;2.56;88.20;101934.98;103292;1287;24453;-62
2022/11/12 06:45:37;;;;;;;40.30;17.00;;;;;;;2.56;88.17;101931.83;103345;1280;22470;-61
2022/11/12 06:48:08;;;;;;;36.50;14.60;;;;;;;2.58;88.18;101939.09;103329;1304;22465;-61
2022/11/12 06:50:39;;;;;;;29.00;12.50;;;;;;;2.60;88.27;101937.38;103263;1309;22497;-62
2022/11/12 06:53:12;;;;;;;33.60;13.10;;;;;;;2.62;88.52;101945.81;103374;1287;23867;-61
2022/11/12 06:55:43;;;;;;;29.50;11.80;;;;;;;2.63;88.53;101950.23;103227;1310;24259;-61
2022/11/12 06:58:14;;;;;;;34.20;11.50;;;;;;;2.66;88.68;101951.75;103331;1291;25045;-60
2022/11/12 07:00:46;;;;;;;30.20;11.50;;;;;;;2.68;89.02;101950.89;103382;1296;25481;-61
2022/11/12 07:03:17;;;;;;;28.00;11.70;;;;;;;2.70;89.16;101954.85;103415;1309;22475;-60
2022/11/12 07:05:49;;;;;;;30.50;12.00;;;;;;;2.73;89.28;101958.17;103336;1304;25231;-63
2022/11/12 07:08:21;;;;;;;32.30;11.90;;;;;;;2.76;89.47;101954.65;103305;1310;22457;-61
2022/11/12 07:10:57;;;;;;;27.70;12.40;;;;;;;2.79;89.51;101956.95;103211;1280;25269;-61
2022/11/12 07:13:31;;;;;;;30.40;12.50;;;;;;;2.82;89.57;101957.21;103259;1296;25300;-61
2022/11/12 07:16:04;;;;;;;27.00;10.20;;;;;;;2.84;89.65;101961.02;103332;1288;24399;-60
2022/11/12 07:18:36;;;;;;;31.50;12.00;;;;;;;2.87;90.04;101965.12;103310;1280;22516;-62
2022/11/12 07:21:10;;;;;;;29.60;11.10;;;;;;;2.91;90.11;101963.40;103259;1310;22469;-60
2022/11/12 07:23:42;;;;;;;27.90;10.50;;;;;;;2.94;90.24;101967.59;103330;1304;22441;-61
2022/11/12 07:26:17;;;;;;;25.50;10.50;;;;;;;2.97;90.34;101966.77;103330;1280;25352;-61
2022/11/12 07:28:50;;;;;;;31.20;12.00;;;;;;;3.01;90.52;101967.17;103310;1304;26652;-61
2022/11/12 07:31:24;;;;;;;29.40;9.60;;;;;;;3.06;90.81;101961.60;103230;1308;22467;-61
2022/11/12 07:33:56;;;;;;;27.50;9.40;;;;;;;3.12;90.82;101968.16;103389;1306;22471;-62
2022/11/12 07:36:27;;;;;;;29.30;10.90;;;;;;;3.15;90.98;101968.04;103519;1280;24465;-61
2022/11/12 07:38:59;;;;;;;30.20;10.00;;;;;;;3.20;91.06;101970.81;103259;1306;22509;-61
2022/11/12 07:41:30;;;;;;;30.10;11.10;;;;;;;3.24;91.02;101971.63;103432;1303;22513;-63
2022/11/12 07:44:03;;;;;;;26.90;9.70;;;;;;;3.28;91.14;101964.87;103294;1280;22474;-61
2022/11/12 07:46:35;;;;;;;27.80;10.40;;;;;;;3.33;91.06;101962.59;103283;1299;22475;-60
2022/11/12 07:49:07;;;;;;;29.10;11.30;;;;;;;3.38;91.24;101962.23;103280;1278;22481;-61
2022/11/12 07:51:38;;;;;;;29.50;10.70;;;;;;;3.43;91.35;101967.29;103279;1306;25232;-60
2022/11/12 07:54:11;;;;;;;34.20;13.30;;;;;;;3.47;91.46;101961.39;103323;1282;24378;-61
2022/11/12 07:56:42;;;;;;;34.20;12.70;;;;;;;3.53;91.72;101958.41;103407;1304;22532;-61
2022/11/12 07:59:14;;;;;;;33.00;12.10;;;;;;;3.59;91.77;101959.22;103358;1288;22457;-63
2022/11/12 08:01:46;;;;;;;38.10;14.30;;;;;;;3.65;91.86;101961.14;103355;1306;22623;-61
2022/11/12 08:04:17;;;;;;;37.90;13.90;;;;;;;3.71;92.02;101959.17;103245;1303;22490;-60
2022/11/12 08:06:49;;;;;;;35.90;13.00;;;;;;;3.78;92.06;101967.15;103290;1288;22600;-61
2022/11/12 08:09:25;;;;;;;29.90;12.20;;;;;;;3.82;91.93;101969.23;103254;1305;22481;-61
2022/11/12 08:11:57;;;;;;;36.40;12.50;;;;;;;3.87;92.10;101969.39;103275;1280;24583;-61
2022/11/12 08:14:29;;;;;;;35.20;11.60;;;;;;;3.93;92.31;101967.59;103185;1287;22473;-61
2022/11/12 08:17:00;;;;;;;30.40;10.50;;;;;;;3.99;92.56;101969.42;103265;1280;24564;-63
2022/11/12 08:19:32;;;;;;;31.90;11.00;;;;;;;4.07;92.71;101972.27;103135;1305;22921;-61
2022/11/12 08:22:03;;;;;;;27.30;10.40;;;;;;;4.16;92.86;101973.31;103216;1301;23529;-61
2022/11/12 08:24:35;;;;;;;24.10;9.20;;;;;;;4.24;92.92;101975.91;103254;1303;24272;-61
2022/11/12 08:27:06;;;;;;;27.00;8.50;;;;;;;4.32;92.94;101974.27;103256;1296;22465;-61
2022/11/12 08:29:38;;;;;;;26.80;9.20;;;;;;;4.40;93.10;101977.50;103178;1303;25232;-60
2022/11/12 08:32:09;;;;;;;29.20;9.70;;;;;;;4.51;93.44;101979.80;103274;1293;22608;-63
2022/11/12 08:34:42;;;;;;;21.90;7.60;;;;;;;4.61;93.42;101978.99;103093;1306;24445;-63
2022/11/12 08:37:14;;;;;;;24.80;8.20;;;;;;;4.70;93.35;101981.30;103334;1303;22482;-61
2022/11/12 08:39:45;;;;;;;26.30;7.60;;;;;;;4.79;93.46;101978.73;103345;1303;25386;-63
2022/11/12 08:42:16;;;;;;;21.60;8.20;;;;;;;4.88;93.55;101984.10;103303;1274;22536;-63
2022/11/12 08:44:48;;;;;;;25.70;8.40;;;;;;;4.98;93.48;101981.72;103557;1279;22469;-61
2022/11/12 08:47:20;;;;;;;25.30;7.70;;;;;;;5.07;93.47;101984.38;103250;1303;22461;-62
2022/11/12 08:49:51;;;;;;;22.90;8.80;;;;;;;5.16;93.42;101984.13;103374;1280;22508;-61
2022/11/12 08:52:22;;;;;;;21.90;8.30;;;;;;;5.24;93.45;101979.42;103298;1282;26612;-61
2022/11/12 08:54:54;;;;;;;24.90;8.30;;;;;;;5.34;93.33;101974.63;103300;1291;23007;-60
2022/11/12 08:57:25;;;;;;;22.10;7.40;;;;;;;5.42;93.44;101976.20;103470;1297;22490;-61
2022/11/12 08:59:57;;;;;;;21.90;7.10;;;;;;;5.50;93.44;101972.44;103438;1304;25414;-61
2022/11/12 09:02:29;;;;;;;26.50;7.30;;;;;;;5.58;93.54;101970.42;104010;1283;25378;-61
2022/11/12 09:05:01;;;;;;;26.60;9.10;;;;;;;5.66;93.47;101968.95;103495;1278;22551;-61
2022/11/12 09:07:32;;;;;;;22.80;7.80;;;;;;;5.75;93.54;101969.30;103377;1284;22435;-61
2022/11/12 09:10:05;;;;;;;22.60;7.60;;;;;;;5.84;93.26;101968.16;103565;1282;22494;-61
2022/11/12 09:12:37;;;;;;;24.00;7.70;;;;;;;5.95;93.21;101968.27;103519;1304;22471;-61
2022/11/12 09:15:11;;;;;;;26.80;8.80;;;;;;;6.03;92.93;101971.70;103567;1304;25343;-62
2022/11/12 09:17:42;;;;;;;22.90;7.60;;;;;;;6.13;92.87;101980.17;103573;1296;25385;-60
2022/11/12 09:20:14;;;;;;;24.80;8.00;;;;;;;6.22;92.80;101980.20;103491;1280;22479;-61
2022/11/12 09:22:46;;;;;;;22.00;6.80;;;;;;;6.33;92.63;101981.06;103525;1288;25241;-61
2022/11/12 09:25:18;;;;;;;21.80;7.00;;;;;;;6.45;92.72;101974.95;103470;1306;26597;-61
2022/11/12 09:27:49;;;;;;;22.40;7.40;;;;;;;6.56;92.39;101980.08;103614;1297;22467;-61
2022/11/12 09:30:21;;;;;;;19.70;7.20;;;;;;;6.65;92.26;101982.62;103644;1303;24375;-61
2022/11/12 09:32:58;;;;;;;19.00;6.70;;;;;;;6.75;92.17;101980.77;103731;1289;22599;-61
2022/11/12 09:35:30;;;;;;;17.30;5.90;;;;;;;6.86;92.02;101981.63;103690;1297;22776;-61
2022/11/12 09:38:01;;;;;;;22.30;7.80;;;;;;;6.96;92.09;101977.09;103690;1280;22473;-61
2022/11/12 09:40:47;;;;;;;17.20;6.60;;;;;;;7.04;92.03;101978.27;103642;1304;22732;-61
2022/11/12 09:43:26;;;;;;;19.80;6.90;;;;;;;7.15;92.08;101979.88;103556;1296;23212;-61
2022/11/12 09:46:01;;;;;;;19.30;6.20;;;;;;;7.25;91.89;101979.38;103492;1296;22476;-61
2022/11/12 09:48:40;;;;;;;21.50;6.90;;;;;;;7.35;91.59;101977.05;103695;1304;22474;-61
2022/11/12 09:51:18;;;;;;;14.90;4.70;;;;;;;7.45;91.51;101974.38;103665;1281;22571;-61
2022/11/12 09:53:54;;;;;;;14.00;4.00;;;;;;;7.57;90.99;101980.51;103712;1281;22485;-61
2022/11/12 09:56:28;;;;;;;16.50;4.50;;;;;;;7.68;90.82;101978.84;103749;1303;22558;-62
2022/11/12 09:58:59;;;;;;;14.60;4.20;;;;;;;7.79;90.63;101979.25;103654;1287;23196;-62
2022/11/12 10:01:43;;;;;;;12.10;3.40;;;;;;;7.91;90.21;101977.02;103498;1291;24372;-62
2022/11/12 10:04:54;;;;;;;16.10;3.60;;;;;;;8.02;89.93;101976.30;103528;1282;22520;-61
2022/11/12 10:07:39;;;;;;;15.20;3.60;;;;;;;8.12;89.67;101974.09;103502;1303;22466;-62
2022/11/12 10:10:16;;;;;;;13.40;3.30;;;;;;;8.24;89.51;101978.91;103543;1304;22683;-61
2022/11/12 10:12:58;;;;;;;14.10;3.80;;;;;;;8.33;89.29;101983.16;103662;1304;25286;-62
2022/11/12 10:18:54;;;;;;;14.30;3.80;;;;;;;8.46;88.83;101986.77;103571;1276;22493;-62
2022/11/12 10:21:35;;;;;;;13.90;3.50;;;;;;;8.57;88.82;101983.40;103368;1284;24140;-62
2022/11/12 10:24:10;;;;;;;17.50;3.00;;;;;;;8.69;88.28;101979.79;103479;1293;22509;-62
2022/11/12 10:26:42;;;;;;;13.30;3.30;;;;;;;8.81;87.89;101984.18;103641;1303;22512;-63
2022/11/12 10:29:27;;;;;;;13.70;3.40;;;;;;;8.88;87.68;101980.95;103600;1281;24057;-60
2022/11/12 10:32:00;;;;;;;14.70;4.20;;;;;;;8.95;87.96;101978.66;103390;1303;325488;-61
2022/11/12 10:34:34;;;;;;;13.60;4.20;;;;;;;9.02;87.41;101971.55;103478;1303;22706;-62
2022/11/12 10:37:07;;;;;;;14.50;3.20;;;;;;;9.08;87.14;101965.45;103471;1282;22887;-62
2022/11/12 10:39:40;;;;;;;15.30;3.70;;;;;;;9.14;87.00;101967.41;103519;1302;22489;-61
2022/11/12 10:42:13;;;;;;;14.40;3.20;;;;;;;9.25;86.75;101974.03;103545;1281;24123;-62
2022/11/12 10:44:46;;;;;;;14.90;4.30;;;;;;;9.32;86.56;101971.11;103555;1297;22519;-62
2022/11/12 10:47:30;;;;;;;13.40;2.80;;;;;;;9.32;86.20;101974.05;103587;1303;25381;-62
2022/11/12 10:50:16;;;;;;;11.50;2.60;;;;;;;9.37;86.28;101970.94;103552;1303;22525;-62
2022/11/12 10:52:58;;;;;;;12.90;3.10;;;;;;;9.41;86.62;101968.38;103468;1298;22560;-62
2022/11/12 10:55:33;;;;;;;10.50;2.40;;;;;;;9.41;86.26;101965.52;103454;1296;25478;-62
2022/11/12 10:58:15;;;;;;;14.40;4.10;;;;;;;9.40;86.13;101970.62;103477;1280;22684;-61
2022/11/12 11:00:59;;;;;;;14.60;3.90;;;;;;;9.48;85.80;101973.89;103524;1280;22447;-62
2022/11/12 11:03:35;;;;;;;22.30;8.30;;;;;;;9.55;85.80;101973.41;103596;1303;22469;-62
2022/11/12 11:06:20;;;;;;;34.40;12.30;;;;;;;9.61;85.00;101972.27;103516;1274;22463;-62
2022/11/12 11:08:53;;;;;;;18.20;5.60;;;;;;;9.64;85.07;101960.97;103578;1303;22481;-61
2022/11/12 11:11:27;;;;;;;17.80;4.50;;;;;;;9.67;85.31;101958.83;103516;1303;24984;-61
2022/11/12 11:14:19;;;;;;;14.80;3.90;;;;;;;9.69;85.17;101957.48;103496;1304;22476;-63
2022/11/12 11:16:53;;;;;;;12.30;3.40;;;;;;;9.74;85.13;101956.36;103538;1296;22472;-61
2022/11/12 11:19:29;;;;;;;12.50;2.70;;;;;;;9.73;84.83;101957.08;103521;1304;24652;-61
2022/11/12 11:22:14;;;;;;;11.90;3.00;;;;;;;9.75;84.38;101954.48;103510;1303;22666;-62
2022/11/12 11:24:57;;;;;;;15.00;3.60;;;;;;;9.84;84.17;101953.81;103461;1303;22785;-62
2022/11/12 11:27:34;;;;;;;15.50;3.70;;;;;;;9.92;83.94;101949.09;103488;1304;22486;-61
2022/11/12 11:30:12;;;;;;;13.20;3.90;;;;;;;9.95;83.82;101953.17;103573;1297;22741;-61
2022/11/12 11:33:02;;;;;;;14.50;4.00;;;;;;;9.98;83.77;101954.70;103513;1303;25348;-62
2022/11/12 11:35:53;;;;;;;14.40;3.60;;;;;;;10.02;83.76;101955.89;103532;1303;22549;-62
2022/11/12 11:38:37;;;;;;;13.00;3.40;;;;;;;10.09;83.44;101949.02;103486;1304;22487;-61
2022/11/12 11:41:21;;;;;;;11.10;3.00;;;;;;;10.16;83.29;101945.77;103460;1303;22483;-61
2022/11/12 11:44:03;;;;;;;10.00;2.70;;;;;;;10.19;83.27;101944.49;103439;1279;22470;-61
2022/11/12 11:46:51;;;;;;;11.90;2.60;;;;;;;10.25;82.61;101941.63;103441;1280;22461;-63
2022/11/12 11:49:42;;;;;;;12.30;2.60;;;;;;;10.34;82.74;101936.86;103337;1282;22511;-61
2022/11/12 11:52:32;;;;;;;11.60;2.80;;;;;;;10.41;82.93;101937.95;103452;1296;22495;-63
2022/11/12 11:55:18;;;;;;;10.50;2.70;;;;;;;10.48;82.76;101940.02;102911;1309;22476;-62
2022/11/12 11:58:02;;;;;;;10.80;2.50;;;;;;;10.52;82.41;101942.71;102998;1286;26175;-63
2022/11/12 12:00:40;;;;;;;13.10;2.70;;;;;;;10.56;82.17;101942.54;102979;1309;22516;-61
2022/11/12 12:03:20;;;;;;;12.40;2.70;;;;;;;10.61;82.00;101937.85;102931;1289;22500;-61
2022/11/12 12:06:08;;;;;;;10.60;2.70;;;;;;;10.69;81.96;101934.86;102993;1287;25241;-62